createdAt,value
2019-04-07T00:01:27.544Z,54.66
2019-04-07T00:04:01.765Z,54.80
2019-04-07T00:06:36.147Z,54.99
2019-04-07T00:09:10.024Z,55.21
2019-04-07T00:11:43.211Z,55.21
2019-04-07T00:14:18.522Z,55.41
2019-04-07T00:16:51.813Z,55.45
2019-04-07T00:19:25.122Z,55.50
2019-04-07T00:21:58.274Z,55.28
2019-04-07T00:24:31.469Z,55.60
2019-04-07T00:27:04.584Z,55.52
2019-04-07T00:29:37.926Z,55.76
2019-04-07T00:32:11.147Z,55.60
2019-04-07T00:34:45.721Z,55.89
2019-04-07T00:37:18.891Z,55.73
2019-04-07T00:39:52.174Z,56.16
2019-04-07T00:42:25.900Z,56.24
2019-04-07T00:44:59.724Z,56.39
2019-04-07T00:47:32.908Z,56.57
2019-04-07T00:50:07.640Z,56.63
2019-04-07T00:52:40.743Z,56.61
2019-04-07T00:55:14.213Z,56.71
2019-04-07T00:57:47.364Z,56.77
2019-04-07T01:00:22.040Z,56.96
2019-04-07T01:02:55.293Z,57.09
2019-04-07T01:05:36.654Z,57.20
2019-04-07T01:08:05.269Z,57.57
2019-04-07T01:10:38.440Z,57.56
2019-04-07T01:13:12.329Z,57.57
2019-04-07T01:15:46.019Z,57.44
2019-04-07T01:18:19.601Z,57.49
2019-04-07T01:20:53.878Z,57.53
2019-04-07T01:23:28.218Z,57.55
2019-04-07T01:26:02.183Z,57.56
2019-04-07T01:28:35.470Z,57.72
2019-04-07T01:31:08.874Z,57.78
2019-04-07T01:33:44.272Z,57.96
2019-04-07T01:36:17.523Z,57.85
2019-04-07T01:38:51.155Z,58.12
2019-04-07T01:41:51.576Z,58.05
2019-04-07T01:44:30.876Z,57.72
2019-04-07T01:47:32.081Z,57.91
2019-04-07T01:50:33.910Z,58.31
2019-04-07T01:53:22.807Z,58.27
2019-04-07T01:56:21.034Z,58.68
2019-04-07T01:59:00.578Z,58.59
2019-04-07T02:01:56.149Z,58.66
2019-04-07T02:04:38.907Z,58.63
2019-04-07T02:07:43.609Z,58.95
2019-04-07T02:10:30.625Z,59.29
2019-04-07T02:13:37.854Z,59.35
2019-04-07T02:16:42.272Z,59.41
2019-04-07T02:19:34.459Z,59.44
2019-04-07T02:22:33.324Z,59.51
2019-04-07T02:25:25.218Z,59.39
2019-04-07T02:28:20.384Z,59.75
2019-04-07T02:31:09.760Z,59.84
2019-04-07T02:34:01.774Z,59.87
2019-04-07T02:36:54.006Z,60.18
2019-04-07T02:39:58.819Z,60.43
2019-04-07T02:43:00.880Z,60.31
2019-04-07T02:45:52.390Z,60.38
2019-04-07T02:48:48.891Z,60.50
2019-04-07T02:51:33.810Z,60.49
2019-04-07T02:54:38.174Z,60.42
2019-04-07T02:57:26.850Z,60.75
2019-04-07T03:00:16.610Z,60.80
2019-04-07T03:03:01.573Z,60.90
2019-04-07T03:05:48.186Z,61.13
2019-04-07T03:08:39.628Z,61.17
2019-04-07T03:11:35.347Z,61.20
2019-04-07T03:14:43.727Z,61.28
2019-04-07T03:17:36.636Z,61.15
2019-04-07T03:20:20.057Z,61.09
2019-04-07T03:23:07.250Z,61.26
2019-04-07T03:26:05.817Z,61.27
2019-04-07T03:28:57.956Z,61.24
2019-04-07T03:32:06.346Z,61.25
2019-04-07T03:35:12.422Z,61.39
2019-04-07T03:38:04.559Z,61.41
2019-04-07T03:41:03.798Z,61.56
2019-04-07T03:43:55.778Z,61.65
2019-04-07T03:46:50.869Z,61.51
2019-04-07T03:49:29.550Z,61.75
2019-04-07T03:52:13.617Z,61.81
2019-04-07T03:55:11.367Z,62.00
2019-04-07T03:58:02.398Z,62.18
2019-04-07T04:01:33.691Z,62.29
2019-04-07T04:04:29.987Z,62.27
2019-04-07T04:07:20.628Z,62.05
2019-04-07T04:09:47.423Z,49.83
2019-04-07T04:12:31.706Z,45.01
2019-04-07T04:15:33.974Z,46.81
2019-04-07T04:18:08.116Z,48.93
2019-04-07T04:20:41.351Z,50.13
2019-04-07T04:23:14.551Z,51.06
2019-04-07T04:25:47.757Z,51.88
2019-04-07T04:28:21.865Z,52.70
2019-04-07T04:30:56.520Z,53.26
2019-04-07T04:33:31.066Z,53.88
2019-04-07T04:36:04.395Z,54.47
2019-04-07T04:38:38.522Z,55.03
2019-04-07T04:41:12.021Z,55.45
2019-04-07T04:43:45.471Z,56.04
2019-04-07T04:46:18.872Z,56.43
2019-04-07T04:48:52.496Z,57.26
2019-04-07T04:51:28.163Z,57.93
2019-04-07T04:54:03.836Z,58.60
2019-04-07T04:56:37.763Z,59.27
2019-04-07T04:59:12.839Z,59.53
2019-04-07T05:01:46.417Z,60.31
2019-04-07T05:04:20.637Z,60.96
2019-04-07T05:06:54.853Z,61.33
2019-04-07T05:09:40.216Z,61.73
2019-04-07T05:12:05.053Z,62.27
2019-04-07T05:14:38.926Z,62.73
2019-04-07T05:17:13.329Z,51.13
2019-04-07T05:19:46.825Z,45.98
2019-04-07T05:22:20.368Z,47.32
2019-04-07T05:24:53.629Z,48.82
2019-04-07T05:27:27.573Z,49.96
2019-04-07T05:30:01.193Z,50.93
2019-04-07T05:32:34.434Z,51.44
2019-04-07T05:35:08.901Z,51.88
2019-04-07T05:37:42.538Z,52.32
2019-04-07T05:40:16.766Z,52.66
2019-04-07T05:42:49.973Z,53.01
2019-04-07T05:45:23.785Z,53.32
2019-04-07T05:47:57.855Z,53.78
2019-04-07T05:50:31.819Z,54.12
2019-04-07T05:53:06.806Z,54.39
2019-04-07T05:55:39.852Z,54.82
2019-04-07T05:58:15.330Z,55.03
2019-04-07T06:00:49.402Z,55.22
2019-04-07T06:03:23.829Z,55.34
2019-04-07T06:05:57.887Z,55.57
2019-04-07T06:08:37.694Z,55.69
2019-04-07T06:11:06.232Z,55.98
2019-04-07T06:13:43.865Z,55.92
2019-04-07T06:16:15.603Z,55.99
2019-04-07T06:18:48.788Z,55.98
2019-04-07T06:21:22.225Z,56.41
2019-04-07T06:23:59.840Z,56.17
2019-04-07T06:26:34.196Z,56.03
2019-04-07T06:29:19.991Z,55.95
2019-04-07T06:31:57.735Z,55.74
2019-04-07T06:34:34.322Z,55.59
2019-04-07T06:37:10.893Z,55.86
2019-04-07T06:39:49.380Z,55.70
2019-04-07T06:42:20.880Z,55.51
2019-04-07T06:44:54.321Z,55.12
2019-04-07T06:47:32.893Z,55.03
2019-04-07T06:50:16.845Z,55.45
2019-04-07T06:53:17.563Z,54.95
2019-04-07T06:56:04.111Z,54.44
2019-04-07T06:58:59.433Z,53.79
2019-04-07T07:01:50.761Z,54.49
2019-04-07T07:04:46.584Z,53.74
2019-04-07T07:07:49.753Z,53.11
2019-04-07T07:10:54.182Z,52.24
2019-04-07T07:14:06.082Z,52.39
2019-04-07T07:17:03.972Z,51.83
2019-04-07T07:19:57.370Z,51.65
2019-04-07T07:22:55.205Z,51.38
2019-04-07T07:25:29.864Z,51.33
2019-04-07T07:28:03.344Z,50.77
2019-04-07T07:30:37.146Z,51.05
2019-04-07T07:33:11.186Z,50.72
2019-04-07T07:35:48.209Z,50.51
2019-04-07T07:38:20.354Z,50.39
2019-04-07T07:40:53.576Z,49.78
2019-04-07T07:43:29.539Z,50.08
2019-04-07T07:46:03.426Z,49.29
2019-04-07T07:48:37.732Z,49.72
2019-04-07T07:51:13.265Z,48.82
2019-04-07T07:53:46.130Z,49.08
2019-04-07T07:56:19.268Z,49.58
2019-04-07T07:58:53.014Z,48.58
2019-04-07T08:01:26.973Z,48.60
2019-04-07T08:04:00.737Z,48.50
2019-04-07T08:06:34.657Z,48.75
2019-04-07T08:09:14.911Z,48.55
2019-04-07T08:11:45.154Z,48.89
2019-04-07T08:14:18.464Z,47.78
2019-04-07T08:16:52.380Z,47.43
2019-04-07T08:19:29.376Z,47.71
2019-04-07T08:22:01.714Z,47.68
2019-04-07T08:24:36.210Z,47.02
2019-04-07T08:27:09.422Z,46.67
2019-04-07T08:29:46.219Z,46.87
2019-04-07T08:32:19.798Z,47.07
2019-04-07T08:34:54.789Z,46.32
2019-04-07T08:37:31.196Z,45.34
2019-04-07T08:40:07.268Z,45.57
2019-04-07T08:42:39.291Z,45.73
2019-04-07T08:45:16.754Z,45.11
2019-04-07T08:47:59.836Z,44.93
2019-04-07T08:50:34.385Z,45.59
2019-04-07T08:53:11.506Z,44.39
2019-04-07T08:55:54.707Z,43.95
2019-04-07T08:58:36.153Z,44.63
2019-04-07T09:01:06.399Z,44.67
2019-04-07T09:03:39.996Z,43.65
2019-04-07T09:06:13.392Z,43.04
2019-04-07T09:08:46.610Z,42.62
2019-04-07T09:11:23.268Z,42.29
2019-04-07T09:13:58.171Z,41.54
2019-04-07T09:16:52.849Z,39.97
2019-04-07T09:19:54.474Z,40.23
2019-04-07T09:23:01.730Z,40.63
2019-04-07T09:26:03.309Z,39.33
2019-04-07T09:28:55.902Z,39.81
2019-04-07T09:31:46.655Z,39.58
2019-04-07T09:34:41.469Z,38.09
2019-04-07T09:37:32.359Z,39.34
2019-04-07T09:40:30.786Z,38.85
2019-04-07T09:43:14.543Z,39.03
2019-04-07T09:46:25.038Z,40.24
2019-04-07T09:49:21.219Z,39.86
2019-04-07T09:52:14.909Z,39.17
2019-04-07T09:55:04.516Z,39.01
2019-04-07T09:57:59.514Z,39.68
2019-04-07T10:01:08.010Z,39.69
2019-04-07T10:04:00.168Z,40.36
2019-04-07T10:06:58.357Z,38.06
2019-04-07T10:10:14.323Z,38.30
2019-04-07T10:13:08.261Z,38.64
2019-04-07T10:15:59.842Z,37.93
2019-04-07T10:18:58.194Z,37.46
2019-04-07T10:22:01.617Z,37.85
2019-04-07T10:24:51.802Z,38.77
2019-04-07T10:27:56.971Z,38.09
2019-04-07T10:30:38.221Z,37.36
2019-04-07T10:33:45.976Z,37.33
2019-04-07T10:36:28.125Z,37.36
2019-04-07T10:39:16.348Z,37.58
2019-04-07T10:42:06.968Z,37.56
2019-04-07T10:45:04.818Z,37.77
2019-04-07T10:47:52.471Z,36.91
2019-04-07T10:50:53.533Z,37.47
2019-04-07T10:53:51.227Z,37.31
2019-04-07T10:56:46.496Z,36.25
2019-04-07T10:59:49.189Z,36.33
2019-04-07T11:02:45.897Z,36.37
2019-04-07T11:05:44.779Z,36.12
2019-04-07T11:08:46.624Z,36.16
2019-04-07T11:11:57.243Z,35.47
2019-04-07T11:14:55.872Z,37.25
2019-04-07T11:17:44.008Z,36.68
2019-04-07T11:20:45.631Z,33.98
2019-04-07T11:23:46.955Z,34.44
2019-04-07T11:26:51.757Z,34.43
2019-04-07T11:29:49.681Z,34.55
2019-04-07T11:32:54.340Z,34.59
2019-04-07T11:35:47.618Z,34.68
2019-04-07T11:38:49.462Z,34.54
2019-04-07T11:41:48.259Z,34.20
2019-04-07T11:44:40.242Z,36.92
2019-04-07T11:47:21.802Z,34.01
2019-04-07T11:50:04.963Z,34.49
2019-04-07T11:52:57.313Z,34.21
2019-04-07T11:55:48.577Z,34.42
2019-04-07T11:58:45.345Z,33.88
2019-04-07T12:01:41.941Z,33.73
2019-04-07T12:04:38.046Z,33.59
2019-04-07T12:07:45.825Z,35.68
2019-04-07T12:10:41.248Z,34.16
2019-04-07T12:13:32.992Z,34.28
2019-04-07T12:16:28.672Z,33.15
2019-04-07T12:19:23.843Z,33.56
2019-04-07T12:22:12.817Z,32.82
2019-04-07T12:24:59.365Z,33.64
2019-04-07T12:28:02.273Z,33.51
2019-04-07T12:31:00.512Z,33.27
2019-04-07T12:33:51.654Z,33.11
2019-04-07T12:36:41.949Z,31.83
2019-04-07T12:39:22.355Z,31.70
2019-04-07T12:42:12.339Z,32.41
2019-04-07T12:45:14.426Z,32.34
2019-04-07T12:48:04.723Z,32.35
2019-04-07T12:50:58.435Z,32.27
2019-04-07T12:53:41.277Z,31.13
2019-04-07T12:56:31.665Z,31.45
2019-04-07T12:59:14.265Z,31.22
2019-04-07T13:01:53.482Z,32.43
2019-04-07T13:04:34.316Z,31.73
2019-04-07T13:07:23.004Z,32.05
2019-04-07T13:10:14.314Z,32.33
2019-04-07T13:13:05.884Z,32.33
2019-04-07T13:16:00.283Z,31.71
2019-04-07T13:18:53.102Z,30.32
2019-04-07T13:21:38.088Z,30.92
2019-04-07T13:24:34.940Z,32.27
2019-04-07T13:27:16.997Z,30.97
2019-04-07T13:30:21.416Z,31.66
2019-04-07T13:33:26.418Z,30.51
2019-04-07T13:36:10.397Z,31.49
2019-04-07T13:38:53.049Z,31.09
2019-04-07T13:41:45.903Z,29.04
2019-04-07T13:44:24.255Z,29.24
2019-04-07T13:47:16.463Z,26.68
2019-04-07T13:50:08.664Z,27.60
2019-04-07T13:53:02.930Z,27.10
2019-04-07T13:55:59.575Z,28.48
2019-04-07T13:58:50.931Z,27.51
2019-04-07T14:01:34.693Z,29.47
2019-04-07T14:04:21.736Z,28.60
2019-04-07T14:07:16.900Z,27.10
2019-04-07T14:10:27.450Z,27.46
2019-04-07T14:13:19.747Z,27.53
2019-04-07T14:16:09.557Z,27.08
2019-04-07T14:19:00.252Z,27.03
2019-04-07T14:21:55.735Z,25.64
2019-04-07T14:24:39.517Z,25.56
2019-04-07T14:27:31.647Z,24.46
2019-04-07T14:30:22.288Z,23.96
2019-04-07T14:33:30.739Z,22.27
2019-04-07T14:36:11.639Z,24.25
2019-04-07T14:38:57.469Z,24.21
2019-04-07T14:42:01.014Z,25.53
2019-04-07T14:44:45.758Z,26.56
2019-04-07T14:47:52.325Z,27.12
2019-04-07T14:50:40.709Z,27.60
2019-04-07T14:53:33.770Z,27.37
2019-04-07T14:56:21.927Z,27.41
2019-04-07T14:59:13.210Z,27.45
2019-04-07T15:01:54.372Z,28.78
2019-04-07T15:04:35.717Z,27.83
2019-04-07T15:07:29.981Z,28.26
2019-04-07T15:10:11.845Z,28.44
2019-04-07T15:12:49.016Z,28.77
2019-04-07T15:15:23.667Z,28.60
2019-04-07T15:17:57.567Z,28.91
2019-04-07T15:20:31.159Z,28.79
2019-04-07T15:23:05.467Z,28.42
2019-04-07T15:25:43.926Z,28.83
2019-04-07T15:28:18.011Z,28.48
2019-04-07T15:30:54.423Z,29.12
2019-04-07T15:33:33.040Z,29.20
2019-04-07T15:36:08.925Z,29.84
2019-04-07T15:38:44.394Z,29.28
2019-04-07T15:41:23.876Z,29.62
2019-04-07T15:44:10.372Z,29.53
2019-04-07T15:46:53.214Z,29.44
2019-04-07T15:49:28.322Z,29.22
2019-04-07T15:52:06.736Z,29.96
2019-04-07T15:54:37.144Z,29.40
2019-04-07T15:57:11.160Z,29.43
2019-04-07T15:59:45.030Z,29.21
2019-04-07T16:02:19.271Z,29.51
2019-04-07T16:04:52.699Z,29.58
2019-04-07T16:07:26.195Z,29.67
2019-04-07T16:09:59.784Z,29.49
2019-04-07T16:12:43.510Z,29.83
2019-04-07T16:15:09.674Z,29.98
2019-04-07T16:17:43.852Z,30.20
2019-04-07T16:20:23.286Z,30.27
2019-04-07T16:22:53.296Z,30.15
2019-04-07T16:25:28.208Z,30.85
2019-04-07T16:28:02.282Z,30.67
2019-04-07T16:30:35.781Z,29.78
2019-04-07T16:33:09.898Z,29.70
2019-04-07T16:35:44.016Z,30.21
2019-04-07T16:38:18.319Z,29.33
2019-04-07T16:40:51.559Z,29.41
2019-04-07T16:43:24.813Z,28.54
2019-04-07T16:45:58.307Z,28.94
2019-04-07T16:48:36.012Z,29.42
2019-04-07T16:51:09.178Z,30.55
2019-04-07T16:53:44.407Z,30.05
2019-04-07T16:56:20.113Z,30.10
2019-04-07T16:58:53.398Z,30.13
2019-04-07T17:01:27.848Z,30.79
2019-04-07T17:04:01.273Z,30.78
2019-04-07T17:06:35.989Z,31.54
2019-04-07T17:09:23.093Z,32.71
2019-04-07T17:11:53.654Z,32.36
2019-04-07T17:14:32.145Z,35.11
2019-04-07T17:17:04.673Z,34.78
2019-04-07T17:19:38.430Z,34.89
2019-04-07T17:22:13.244Z,34.96
2019-04-07T17:24:47.719Z,35.15
2019-04-07T17:27:21.059Z,35.53
2019-04-07T17:29:55.395Z,34.65
2019-04-07T17:32:33.161Z,35.14
2019-04-07T17:35:03.890Z,35.77
2019-04-07T17:37:37.460Z,36.86
2019-04-07T17:40:17.188Z,36.61
2019-04-07T17:42:52.805Z,37.39
2019-04-07T17:45:44.080Z,37.09
2019-04-07T17:48:40.365Z,37.06
2019-04-07T17:51:19.807Z,37.41
2019-04-07T17:54:12.231Z,37.65
2019-04-07T17:57:10.011Z,36.96
2019-04-07T18:00:08.604Z,36.52
2019-04-07T18:03:04.566Z,36.55
2019-04-07T18:05:49.681Z,36.70
2019-04-07T18:08:45.957Z,35.83
2019-04-07T18:11:54.370Z,35.82
2019-04-07T18:14:45.883Z,35.83
2019-04-07T18:17:44.630Z,35.90
2019-04-07T18:20:29.385Z,36.08
2019-04-07T18:23:21.451Z,36.34
2019-04-07T18:26:15.612Z,36.20
2019-04-07T18:29:06.935Z,36.17
2019-04-07T18:31:59.002Z,37.36
2019-04-07T18:34:51.678Z,37.24
2019-04-07T18:37:44.306Z,38.46
2019-04-07T18:40:35.475Z,38.88
2019-04-07T18:43:20.522Z,39.28
2019-04-07T18:46:11.867Z,40.00
2019-04-07T18:48:59.111Z,39.82
2019-04-07T18:51:51.768Z,40.24
2019-04-07T18:54:42.578Z,41.32
2019-04-07T18:57:40.066Z,41.82
2019-04-07T19:00:35.479Z,41.96
2019-04-07T19:03:27.673Z,41.12
2019-04-07T19:06:10.511Z,41.86
2019-04-07T19:09:10.134Z,43.10
2019-04-07T19:12:04.281Z,42.80
2019-04-07T19:15:02.280Z,43.68
2019-04-07T19:17:42.034Z,43.60
2019-04-07T19:20:36.069Z,43.77
2019-04-07T19:23:32.681Z,43.86
2019-04-07T19:26:27.819Z,44.54
2019-04-07T19:29:12.820Z,44.57
2019-04-07T19:32:17.958Z,43.78
2019-04-07T19:35:09.488Z,44.54
2019-04-07T19:37:54.399Z,44.48
2019-04-07T19:40:47.107Z,45.07
2019-04-07T19:43:36.146Z,45.53
2019-04-07T19:46:34.055Z,45.41
2019-04-07T19:49:29.820Z,45.14
2019-04-07T19:52:36.900Z,45.97
2019-04-07T19:55:28.587Z,46.19
2019-04-07T19:58:23.885Z,45.93
2019-04-07T20:01:15.689Z,46.28
2019-04-07T20:04:12.846Z,46.23
2019-04-07T20:07:09.200Z,46.46
2019-04-07T20:10:01.077Z,46.67
2019-04-07T20:13:00.445Z,46.82
2019-04-07T20:15:57.708Z,47.79
2019-04-07T20:18:49.556Z,47.77
2019-04-07T20:21:39.843Z,48.15
2019-04-07T20:24:41.188Z,48.64
2019-04-07T20:27:42.799Z,48.77
2019-04-07T20:30:30.962Z,48.66
2019-04-07T20:33:16.345Z,48.58
2019-04-07T20:36:05.404Z,48.54
2019-04-07T20:38:58.446Z,49.56
2019-04-07T20:42:08.747Z,49.41
2019-04-07T20:45:06.637Z,49.56
2019-04-07T20:47:51.384Z,49.93
2019-04-07T20:50:45.741Z,50.54
2019-04-07T20:53:28.307Z,50.77
2019-04-07T20:56:35.446Z,50.71
2019-04-07T20:59:31.424Z,50.50
2019-04-07T21:02:25.149Z,50.26
2019-04-07T21:05:08.803Z,51.08
2019-04-07T21:08:04.079Z,51.65
2019-04-07T21:10:56.171Z,50.97
2019-04-07T21:13:57.389Z,51.30
2019-04-07T21:16:57.893Z,51.09
2019-04-07T21:19:45.426Z,51.49
2019-04-07T21:22:25.304Z,52.35
2019-04-07T21:25:25.195Z,52.36
2019-04-07T21:28:05.157Z,52.27
2019-04-07T21:30:46.306Z,51.86
2019-04-07T21:33:50.787Z,51.45
2019-04-07T21:36:32.216Z,51.26
2019-04-07T21:39:36.377Z,51.37
2019-04-07T21:42:48.287Z,51.51
2019-04-07T21:45:45.874Z,51.59
2019-04-07T21:48:45.435Z,51.86
2019-04-07T21:51:41.050Z,52.30
2019-04-07T21:54:23.968Z,52.39
2019-04-07T21:57:15.901Z,53.49
2019-04-07T22:00:07.906Z,53.54
2019-04-07T22:03:01.321Z,54.09
2019-04-07T22:05:51.066Z,53.74
2019-04-07T22:08:29.076Z,54.16
2019-04-07T22:11:02.196Z,54.01
2019-04-07T22:13:36.731Z,54.44
2019-04-07T22:16:10.309Z,54.43
2019-04-07T22:18:43.563Z,54.13
2019-04-07T22:21:17.040Z,54.11
2019-04-07T22:23:50.709Z,54.15
2019-04-07T22:26:23.906Z,54.07
2019-04-07T22:29:01.255Z,54.27
2019-04-07T22:31:46.125Z,53.86
2019-04-07T22:34:19.143Z,54.09
2019-04-07T22:36:52.320Z,53.96
2019-04-07T22:39:28.840Z,53.90
2019-04-07T22:42:00.836Z,54.07
2019-04-07T22:44:34.501Z,53.44
2019-04-07T22:47:07.865Z,53.61
2019-04-07T22:49:41.606Z,53.89
2019-04-07T22:52:17.440Z,55.02
2019-04-07T22:54:50.101Z,55.27
2019-04-07T22:57:23.454Z,55.18
2019-04-07T22:59:56.892Z,55.19
2019-04-07T23:02:30.310Z,55.27
2019-04-07T23:05:03.703Z,55.41
2019-04-07T23:07:37.489Z,55.37
2019-04-07T23:10:11.258Z,55.96
2019-04-07T23:12:44.759Z,56.38
2019-04-07T23:15:18.736Z,56.40
2019-04-07T23:17:51.946Z,56.69
2019-04-07T23:20:26.887Z,56.77
2019-04-07T23:23:00.483Z,56.79
2019-04-07T23:25:34.358Z,56.80
2019-04-07T23:28:08.188Z,56.79
2019-04-07T23:30:41.518Z,56.60
2019-04-07T23:33:14.711Z,56.63
2019-04-07T23:35:47.786Z,57.47
2019-04-07T23:38:21.861Z,57.94
2019-04-07T23:40:55.600Z,56.92
2019-04-07T23:43:29.172Z,56.58
2019-04-07T23:46:02.438Z,57.11
2019-04-07T23:48:35.596Z,57.31
2019-04-07T23:51:08.745Z,57.44
2019-04-07T23:54:11.226Z,57.95
2019-04-07T23:56:45.506Z,57.83
2019-04-07T23:59:18.748Z,57.83
